sensor_id;sensor_type;location;lat;lon;timestamp;P1;durP1;ratioP1;P2;durP2;ratioP2
64619;SDS011;51029;51.058;13.826;2023-11-21T00:01:18;5.47;;;3.30;;
64619;SDS011;51029;51.058;13.826;2023-11-21T00:03:44;8.77;;;3.10;;
64619;SDS011;51029;51.058;13.826;2023-11-21T00:06:10;5.23;;;3.00;;
64619;SDS011;51029;51.058;13.826;2023-11-21T00:08:36;3.50;;;2.97;;
64619;SDS011;51029;51.058;13.826;2023-11-21T00:11:02;6.13;;;3.00;;
64619;SDS011;51029;51.058;13.826;2023-11-21T00:13:30;5.53;;;3.10;;
64619;SDS011;51029;51.058;13.826;2023-11-21T00:15:56;7.30;;;3.23;;
64619;SDS011;51029;51.058;13.826;2023-11-21T00:18:22;7.40;;;3.27;;
64619;SDS011;51029;51.058;13.826;2023-11-21T00:20:48;7.53;;;3.30;;
64619;SDS011;51029;51.058;13.826;2023-11-21T00:23:14;3.50;;;3.10;;
64619;SDS011;51029;51.058;13.826;2023-11-21T00:25:40;6.83;;;2.93;;
64619;SDS011;51029;51.058;13.826;2023-11-21T00:28:06;7.77;;;2.80;;
64619;SDS011;51029;51.058;13.826;2023-11-21T00:30:32;4.73;;;2.97;;
64619;SDS011;51029;51.058;13.826;2023-11-21T00:32:58;4.50;;;3.03;;
64619;SDS011;51029;51.058;13.826;2023-11-21T00:35:24;4.00;;;2.80;;
64619;SDS011;51029;51.058;13.826;2023-11-21T00:37:50;5.53;;;2.80;;
64619;SDS011;51029;51.058;13.826;2023-11-21T00:40:17;5.10;;;2.70;;
64619;SDS011;51029;51.058;13.826;2023-11-21T00:42:46;4.97;;;2.40;;
64619;SDS011;51029;51.058;13.826;2023-11-21T00:45:12;4.07;;;2.53;;
64619;SDS011;51029;51.058;13.826;2023-11-21T00:47:38;4.43;;;2.70;;
64619;SDS011;51029;51.058;13.826;2023-11-21T00:50:05;4.20;;;2.60;;
64619;SDS011;51029;51.058;13.826;2023-11-21T00:52:31;5.00;;;2.80;;
64619;SDS011;51029;51.058;13.826;2023-11-21T00:54:57;3.77;;;2.40;;
64619;SDS011;51029;51.058;13.826;2023-11-21T00:57:27;5.40;;;2.70;;
64619;SDS011;51029;51.058;13.826;2023-11-21T00:59:53;2.80;;;2.60;;
64619;SDS011;51029;51.058;13.826;2023-11-21T01:02:19;3.70;;;2.77;;
64619;SDS011;51029;51.058;13.826;2023-11-21T01:04:45;7.00;;;2.70;;
64619;SDS011;51029;51.058;13.826;2023-11-21T01:07:12;6.40;;;2.63;;
64619;SDS011;51029;51.058;13.826;2023-11-21T01:09:38;4.90;;;2.60;;
64619;SDS011;51029;51.058;13.826;2023-11-21T01:12:04;3.00;;;2.37;;
64619;SDS011;51029;51.058;13.826;2023-11-21T01:14:31;3.77;;;2.90;;
64619;SDS011;51029;51.058;13.826;2023-11-21T01:16:57;3.13;;;2.63;;
64619;SDS011;51029;51.058;13.826;2023-11-21T01:19:23;6.07;;;3.00;;
64619;SDS011;51029;51.058;13.826;2023-11-21T01:21:49;7.10;;;2.90;;
64619;SDS011;51029;51.058;13.826;2023-11-21T01:24:17;4.10;;;2.73;;
64619;SDS011;51029;51.058;13.826;2023-11-21T01:26:42;5.10;;;2.80;;
64619;SDS011;51029;51.058;13.826;2023-11-21T01:29:10;6.30;;;2.87;;
64619;SDS011;51029;51.058;13.826;2023-11-21T01:31:36;4.10;;;2.73;;
64619;SDS011;51029;51.058;13.826;2023-11-21T01:34:02;5.47;;;3.37;;
64619;SDS011;51029;51.058;13.826;2023-11-21T01:36:30;3.43;;;3.13;;
64619;SDS011;51029;51.058;13.826;2023-11-21T01:38:57;3.77;;;2.87;;
64619;SDS011;51029;51.058;13.826;2023-11-21T01:41:26;3.07;;;2.77;;
64619;SDS011;51029;51.058;13.826;2023-11-21T01:43:52;4.60;;;2.70;;
64619;SDS011;51029;51.058;13.826;2023-11-21T01:46:19;5.30;;;2.63;;
64619;SDS011;51029;51.058;13.826;2023-11-21T01:48:45;4.47;;;2.80;;
64619;SDS011;51029;51.058;13.826;2023-11-21T01:51:11;5.37;;;3.27;;
64619;SDS011;51029;51.058;13.826;2023-11-21T01:53:37;5.93;;;2.50;;
64619;SDS011;51029;51.058;13.826;2023-11-21T01:56:05;4.33;;;2.90;;
64619;SDS011;51029;51.058;13.826;2023-11-21T01:58:35;3.87;;;3.00;;
64619;SDS011;51029;51.058;13.826;2023-11-21T02:01:02;4.33;;;3.10;;
64619;SDS011;51029;51.058;13.826;2023-11-21T02:03:28;9.13;;;2.80;;
64619;SDS011;51029;51.058;13.826;2023-11-21T02:05:54;5.10;;;2.73;;
64619;SDS011;51029;51.058;13.826;2023-11-21T02:08:20;3.17;;;2.80;;
64619;SDS011;51029;51.058;13.826;2023-11-21T02:10:54;5.07;;;2.93;;
64619;SDS011;51029;51.058;13.826;2023-11-21T02:13:20;4.77;;;2.70;;
64619;SDS011;51029;51.058;13.826;2023-11-21T02:15:46;8.00;;;2.87;;
64619;SDS011;51029;51.058;13.826;2023-11-21T02:18:14;4.03;;;3.17;;
64619;SDS011;51029;51.058;13.826;2023-11-21T02:20:40;4.23;;;2.80;;
64619;SDS011;51029;51.058;13.826;2023-11-21T02:23:07;4.37;;;3.13;;
64619;SDS011;51029;51.058;13.826;2023-11-21T02:25:33;3.70;;;2.90;;
64619;SDS011;51029;51.058;13.826;2023-11-21T02:28:02;3.30;;;2.90;;
64619;SDS011;51029;51.058;13.826;2023-11-21T02:30:29;4.47;;;2.83;;
64619;SDS011;51029;51.058;13.826;2023-11-21T02:32:58;3.73;;;2.77;;
64619;SDS011;51029;51.058;13.826;2023-11-21T02:35:26;5.07;;;2.87;;
64619;SDS011;51029;51.058;13.826;2023-11-21T02:37:53;5.60;;;3.00;;
64619;SDS011;51029;51.058;13.826;2023-11-21T02:40:19;4.43;;;3.30;;
64619;SDS011;51029;51.058;13.826;2023-11-21T02:42:49;4.97;;;3.00;;
64619;SDS011;51029;51.058;13.826;2023-11-21T02:45:16;5.73;;;3.10;;
64619;SDS011;51029;51.058;13.826;2023-11-21T02:47:42;5.87;;;3.40;;
64619;SDS011;51029;51.058;13.826;2023-11-21T02:50:08;4.60;;;3.33;;
64619;SDS011;51029;51.058;13.826;2023-11-21T02:52:35;4.33;;;2.97;;
64619;SDS011;51029;51.058;13.826;2023-11-21T02:55:01;6.00;;;3.50;;
64619;SDS011;51029;51.058;13.826;2023-11-21T02:57:27;4.63;;;3.00;;
64619;SDS011;51029;51.058;13.826;2023-11-21T02:59:53;3.77;;;2.77;;
64619;SDS011;51029;51.058;13.826;2023-11-21T03:02:19;4.10;;;3.10;;
64619;SDS011;51029;51.058;13.826;2023-11-21T03:04:45;6.27;;;3.10;;
64619;SDS011;51029;51.058;13.826;2023-11-21T03:07:14;3.93;;;2.73;;
64619;SDS011;51029;51.058;13.826;2023-11-21T03:09:40;6.93;;;2.70;;
64619;SDS011;51029;51.058;13.826;2023-11-21T03:12:06;3.90;;;2.90;;
64619;SDS011;51029;51.058;13.826;2023-11-21T03:14:34;5.30;;;2.57;;
64619;SDS011;51029;51.058;13.826;2023-11-21T03:17:00;4.00;;;2.73;;
64619;SDS011;51029;51.058;13.826;2023-11-21T03:19:26;5.63;;;2.90;;
64619;SDS011;51029;51.058;13.826;2023-11-21T03:21:52;4.50;;;2.73;;
64619;SDS011;51029;51.058;13.826;2023-11-21T03:24:18;4.63;;;2.93;;
64619;SDS011;51029;51.058;13.826;2023-11-21T03:26:47;5.57;;;2.80;;
64619;SDS011;51029;51.058;13.826;2023-11-21T03:29:13;4.20;;;2.60;;
64619;SDS011;51029;51.058;13.826;2023-11-21T03:31:42;7.63;;;3.53;;
64619;SDS011;51029;51.058;13.826;2023-11-21T03:34:16;7.00;;;3.40;;
64619;SDS011;51029;51.058;13.826;2023-11-21T03:36:42;7.13;;;3.10;;
64619;SDS011;51029;51.058;13.826;2023-11-21T03:39:09;8.13;;;3.60;;
64619;SDS011;51029;51.058;13.826;2023-11-21T03:41:35;4.30;;;3.60;;
64619;SDS011;51029;51.058;13.826;2023-11-21T03:44:01;8.17;;;3.50;;
64619;SDS011;51029;51.058;13.826;2023-11-21T03:46:27;6.83;;;3.90;;
64619;SDS011;51029;51.058;13.826;2023-11-21T03:48:53;5.73;;;3.73;;
64619;SDS011;51029;51.058;13.826;2023-11-21T03:51:20;5.00;;;3.70;;
64619;SDS011;51029;51.058;13.826;2023-11-21T03:53:47;4.40;;;3.40;;
64619;SDS011;51029;51.058;13.826;2023-11-21T03:56:14;7.57;;;3.60;;
64619;SDS011;51029;51.058;13.826;2023-11-21T03:58:40;8.67;;;3.87;;
64619;SDS011;51029;51.058;13.826;2023-11-21T04:01:06;4.07;;;3.37;;
64619;SDS011;51029;51.058;13.826;2023-11-21T04:03:32;6.13;;;3.40;;
64619;SDS011;51029;51.058;13.826;2023-11-21T04:05:58;7.13;;;3.20;;
64619;SDS011;51029;51.058;13.826;2023-11-21T04:08:26;8.27;;;3.27;;
64619;SDS011;51029;51.058;13.826;2023-11-21T04:10:52;6.57;;;3.70;;
64619;SDS011;51029;51.058;13.826;2023-11-21T04:13:18;5.97;;;3.40;;
64619;SDS011;51029;51.058;13.826;2023-11-21T04:15:44;5.77;;;3.30;;
64619;SDS011;51029;51.058;13.826;2023-11-21T04:18:10;5.77;;;3.63;;
64619;SDS011;51029;51.058;13.826;2023-11-21T04:20:36;8.37;;;3.67;;
64619;SDS011;51029;51.058;13.826;2023-11-21T04:23:02;5.93;;;3.30;;
64619;SDS011;51029;51.058;13.826;2023-11-21T04:25:28;5.97;;;3.50;;
64619;SDS011;51029;51.058;13.826;2023-11-21T04:27:54;4.50;;;3.17;;
64619;SDS011;51029;51.058;13.826;2023-11-21T04:30:20;5.30;;;3.50;;
64619;SDS011;51029;51.058;13.826;2023-11-21T04:32:46;7.90;;;3.30;;
64619;SDS011;51029;51.058;13.826;2023-11-21T04:35:12;7.37;;;3.50;;
64619;SDS011;51029;51.058;13.826;2023-11-21T04:37:38;7.27;;;3.73;;
64619;SDS011;51029;51.058;13.826;2023-11-21T04:40:05;7.53;;;4.07;;
64619;SDS011;51029;51.058;13.826;2023-11-21T04:42:33;4.13;;;3.13;;
64619;SDS011;51029;51.058;13.826;2023-11-21T04:44:59;4.87;;;3.00;;
64619;SDS011;51029;51.058;13.826;2023-11-21T04:47:26;5.93;;;3.60;;
64619;SDS011;51029;51.058;13.826;2023-11-21T04:49:52;6.37;;;3.53;;
64619;SDS011;51029;51.058;13.826;2023-11-21T04:52:18;11.33;;;3.60;;
64619;SDS011;51029;51.058;13.826;2023-11-21T04:54:45;6.43;;;3.67;;
64619;SDS011;51029;51.058;13.826;2023-11-21T04:57:11;5.67;;;3.40;;
64619;SDS011;51029;51.058;13.826;2023-11-21T04:59:37;6.30;;;3.43;;
64619;SDS011;51029;51.058;13.826;2023-11-21T05:02:03;6.47;;;3.60;;
64619;SDS011;51029;51.058;13.826;2023-11-21T05:04:30;7.33;;;3.83;;
64619;SDS011;51029;51.058;13.826;2023-11-21T05:06:56;6.03;;;3.97;;
64619;SDS011;51029;51.058;13.826;2023-11-21T05:09:22;7.63;;;4.20;;
64619;SDS011;51029;51.058;13.826;2023-11-21T05:11:48;8.10;;;4.53;;
64619;SDS011;51029;51.058;13.826;2023-11-21T05:14:14;8.93;;;4.40;;
64619;SDS011;51029;51.058;13.826;2023-11-21T05:16:39;6.37;;;3.60;;
64619;SDS011;51029;51.058;13.826;2023-11-21T05:19:05;6.60;;;5.20;;
64619;SDS011;51029;51.058;13.826;2023-11-21T05:21:31;10.33;;;6.33;;
64619;SDS011;51029;51.058;13.826;2023-11-21T05:23:57;9.77;;;5.30;;
64619;SDS011;51029;51.058;13.826;2023-11-21T05:26:24;8.77;;;4.30;;
64619;SDS011;51029;51.058;13.826;2023-11-21T05:28:50;7.50;;;4.40;;
64619;SDS011;51029;51.058;13.826;2023-11-21T05:31:16;7.27;;;3.90;;
64619;SDS011;51029;51.058;13.826;2023-11-21T05:33:42;5.07;;;3.90;;
64619;SDS011;51029;51.058;13.826;2023-11-21T05:36:08;6.00;;;3.83;;
64619;SDS011;51029;51.058;13.826;2023-11-21T05:38:35;6.80;;;3.87;;
64619;SDS011;51029;51.058;13.826;2023-11-21T05:41:02;8.17;;;4.43;;
64619;SDS011;51029;51.058;13.826;2023-11-21T05:43:28;9.57;;;4.57;;
64619;SDS011;51029;51.058;13.826;2023-11-21T05:45:55;5.03;;;4.23;;
64619;SDS011;51029;51.058;13.826;2023-11-21T05:48:21;6.03;;;4.67;;
64619;SDS011;51029;51.058;13.826;2023-11-21T05:50:48;5.97;;;4.33;;
64619;SDS011;51029;51.058;13.826;2023-11-21T05:53:14;9.37;;;4.90;;
64619;SDS011;51029;51.058;13.826;2023-11-21T05:55:40;6.90;;;4.77;;
64619;SDS011;51029;51.058;13.826;2023-11-21T05:58:07;8.93;;;5.03;;
64619;SDS011;51029;51.058;13.826;2023-11-21T06:00:33;7.73;;;4.63;;
64619;SDS011;51029;51.058;13.826;2023-11-21T06:02:59;9.20;;;5.43;;
64619;SDS011;51029;51.058;13.826;2023-11-21T06:05:25;7.57;;;4.43;;
64619;SDS011;51029;51.058;13.826;2023-11-21T06:07:55;8.60;;;5.13;;
64619;SDS011;51029;51.058;13.826;2023-11-21T06:10:23;12.47;;;5.37;;
64619;SDS011;51029;51.058;13.826;2023-11-21T06:12:50;8.93;;;5.23;;
64619;SDS011;51029;51.058;13.826;2023-11-21T06:15:16;9.43;;;5.37;;
64619;SDS011;51029;51.058;13.826;2023-11-21T06:17:44;8.17;;;4.93;;
64619;SDS011;51029;51.058;13.826;2023-11-21T06:20:14;10.43;;;4.70;;
64619;SDS011;51029;51.058;13.826;2023-11-21T06:22:42;11.53;;;5.23;;
64619;SDS011;51029;51.058;13.826;2023-11-21T06:25:09;8.57;;;5.13;;
64619;SDS011;51029;51.058;13.826;2023-11-21T06:27:37;11.30;;;5.27;;
64619;SDS011;51029;51.058;13.826;2023-11-21T06:30:03;8.80;;;6.00;;
64619;SDS011;51029;51.058;13.826;2023-11-21T06:32:30;12.70;;;5.73;;
64619;SDS011;51029;51.058;13.826;2023-11-21T06:34:56;10.03;;;5.80;;
64619;SDS011;51029;51.058;13.826;2023-11-21T06:37:25;12.37;;;6.00;;
64619;SDS011;51029;51.058;13.826;2023-11-21T06:39:51;10.13;;;5.90;;
64619;SDS011;51029;51.058;13.826;2023-11-21T06:42:17;8.53;;;5.00;;
64619;SDS011;51029;51.058;13.826;2023-11-21T06:44:44;8.43;;;5.27;;
64619;SDS011;51029;51.058;13.826;2023-11-21T06:47:10;12.67;;;5.87;;
64619;SDS011;51029;51.058;13.826;2023-11-21T06:49:36;8.40;;;5.20;;
64619;SDS011;51029;51.058;13.826;2023-11-21T06:52:03;11.30;;;5.93;;
64619;SDS011;51029;51.058;13.826;2023-11-21T06:54:30;9.60;;;5.37;;
64619;SDS011;51029;51.058;13.826;2023-11-21T06:56:57;8.77;;;5.53;;
64619;SDS011;51029;51.058;13.826;2023-11-21T06:59:23;10.73;;;5.60;;
64619;SDS011;51029;51.058;13.826;2023-11-21T07:01:50;12.00;;;6.03;;
64619;SDS011;51029;51.058;13.826;2023-11-21T07:04:16;10.90;;;5.87;;
64619;SDS011;51029;51.058;13.826;2023-11-21T07:06:43;10.53;;;5.87;;
64619;SDS011;51029;51.058;13.826;2023-11-21T07:09:09;9.50;;;6.03;;
64619;SDS011;51029;51.058;13.826;2023-11-21T07:11:36;11.33;;;6.23;;
64619;SDS011;51029;51.058;13.826;2023-11-21T07:14:03;9.53;;;6.10;;
64619;SDS011;51029;51.058;13.826;2023-11-21T07:16:36;8.87;;;6.07;;
64619;SDS011;51029;51.058;13.826;2023-11-21T07:19:05;10.80;;;6.30;;
64619;SDS011;51029;51.058;13.826;2023-11-21T07:21:32;9.23;;;6.77;;
64619;SDS011;51029;51.058;13.826;2023-11-21T07:23:58;12.07;;;6.67;;
64619;SDS011;51029;51.058;13.826;2023-11-21T07:26:25;8.80;;;6.47;;
64619;SDS011;51029;51.058;13.826;2023-11-21T07:28:51;13.37;;;7.30;;
64619;SDS011;51029;51.058;13.826;2023-11-21T07:31:17;10.63;;;6.27;;
64619;SDS011;51029;51.058;13.826;2023-11-21T07:33:44;8.83;;;6.60;;
64619;SDS011;51029;51.058;13.826;2023-11-21T07:36:12;10.23;;;6.67;;
64619;SDS011;51029;51.058;13.826;2023-11-21T07:38:38;9.57;;;6.33;;
64619;SDS011;51029;51.058;13.826;2023-11-21T07:41:05;11.47;;;6.67;;
64619;SDS011;51029;51.058;13.826;2023-11-21T07:43:32;12.60;;;7.30;;
64619;SDS011;51029;51.058;13.826;2023-11-21T07:46:00;11.97;;;7.33;;
64619;SDS011;51029;51.058;13.826;2023-11-21T07:48:27;13.83;;;7.40;;
64619;SDS011;51029;51.058;13.826;2023-11-21T07:50:53;16.33;;;7.40;;
64619;SDS011;51029;51.058;13.826;2023-11-21T07:53:19;10.83;;;7.67;;
64619;SDS011;51029;51.058;13.826;2023-11-21T07:55:48;13.30;;;7.40;;
64619;SDS011;51029;51.058;13.826;2023-11-21T07:58:14;12.17;;;8.13;;
64619;SDS011;51029;51.058;13.826;2023-11-21T08:00:40;14.50;;;7.53;;
64619;SDS011;51029;51.058;13.826;2023-11-21T08:03:07;13.57;;;7.63;;
64619;SDS011;51029;51.058;13.826;2023-11-21T08:05:33;21.27;;;8.40;;
64619;SDS011;51029;51.058;13.826;2023-11-21T08:07:59;13.13;;;8.37;;
64619;SDS011;51029;51.058;13.826;2023-11-21T08:10:26;14.80;;;8.70;;
64619;SDS011;51029;51.058;13.826;2023-11-21T08:12:52;17.40;;;8.90;;
64619;SDS011;51029;51.058;13.826;2023-11-21T08:15:18;17.07;;;8.53;;
64619;SDS011;51029;51.058;13.826;2023-11-21T08:17:44;14.97;;;8.33;;
64619;SDS011;51029;51.058;13.826;2023-11-21T08:20:10;16.50;;;8.13;;
64619;SDS011;51029;51.058;13.826;2023-11-21T08:22:37;19.13;;;8.13;;
64619;SDS011;51029;51.058;13.826;2023-11-21T08:25:06;18.27;;;9.33;;
64619;SDS011;51029;51.058;13.826;2023-11-21T08:27:32;19.37;;;9.40;;
64619;SDS011;51029;51.058;13.826;2023-11-21T08:29:59;20.00;;;9.17;;
64619;SDS011;51029;51.058;13.826;2023-11-21T08:32:25;19.10;;;9.53;;
64619;SDS011;51029;51.058;13.826;2023-11-21T08:34:52;20.63;;;11.60;;
64619;SDS011;51029;51.058;13.826;2023-11-21T08:37:18;20.87;;;11.30;;
64619;SDS011;51029;51.058;13.826;2023-11-21T08:39:44;19.53;;;10.37;;
64619;SDS011;51029;51.058;13.826;2023-11-21T08:42:10;18.50;;;10.43;;
64619;SDS011;51029;51.058;13.826;2023-11-21T08:44:36;17.50;;;10.77;;
64619;SDS011;51029;51.058;13.826;2023-11-21T08:47:03;20.97;;;10.80;;
64619;SDS011;51029;51.058;13.826;2023-11-21T08:49:29;24.13;;;12.33;;
64619;SDS011;51029;51.058;13.826;2023-11-21T08:51:56;25.60;;;12.63;;
64619;SDS011;51029;51.058;13.826;2023-11-21T08:54:24;27.90;;;14.23;;
64619;SDS011;51029;51.058;13.826;2023-11-21T08:56:50;30.03;;;14.60;;
64619;SDS011;51029;51.058;13.826;2023-11-21T08:59:16;27.53;;;12.50;;
64619;SDS011;51029;51.058;13.826;2023-11-21T09:01:42;26.20;;;12.23;;
64619;SDS011;51029;51.058;13.826;2023-11-21T09:04:08;23.53;;;12.73;;
64619;SDS011;51029;51.058;13.826;2023-11-21T09:06:34;22.97;;;12.53;;
64619;SDS011;51029;51.058;13.826;2023-11-21T09:09:00;25.63;;;13.00;;
64619;SDS011;51029;51.058;13.826;2023-11-21T09:11:27;26.73;;;12.70;;
64619;SDS011;51029;51.058;13.826;2023-11-21T09:13:58;23.87;;;12.13;;
64619;SDS011;51029;51.058;13.826;2023-11-21T09:16:24;23.30;;;12.10;;
64619;SDS011;51029;51.058;13.826;2023-11-21T09:18:50;23.00;;;12.50;;
64619;SDS011;51029;51.058;13.826;2023-11-21T09:21:16;19.83;;;12.67;;
64619;SDS011;51029;51.058;13.826;2023-11-21T09:23:45;20.17;;;12.57;;
64619;SDS011;51029;51.058;13.826;2023-11-21T09:26:11;22.87;;;12.77;;
64619;SDS011;51029;51.058;13.826;2023-11-21T09:28:37;25.20;;;13.23;;
64619;SDS011;51029;51.058;13.826;2023-11-21T09:31:04;21.93;;;12.40;;
64619;SDS011;51029;51.058;13.826;2023-11-21T09:33:33;18.50;;;12.67;;
64619;SDS011;51029;51.058;13.826;2023-11-21T09:35:59;16.73;;;11.53;;
64619;SDS011;51029;51.058;13.826;2023-11-21T09:38:26;16.73;;;11.63;;
64619;SDS011;51029;51.058;13.826;2023-11-21T09:40:54;16.30;;;10.97;;
64619;SDS011;51029;51.058;13.826;2023-11-21T09:43:20;15.87;;;11.80;;
64619;SDS011;51029;51.058;13.826;2023-11-21T09:45:47;15.93;;;10.80;;
64619;SDS011;51029;51.058;13.826;2023-11-21T09:48:16;14.57;;;9.67;;
64619;SDS011;51029;51.058;13.826;2023-11-21T09:50:42;10.97;;;8.70;;
64619;SDS011;51029;51.058;13.826;2023-11-21T09:53:21;9.27;;;7.33;;
64619;SDS011;51029;51.058;13.826;2023-11-21T09:55:50;8.60;;;6.83;;
64619;SDS011;51029;51.058;13.826;2023-11-21T09:58:17;5.43;;;4.93;;
64619;SDS011;51029;51.058;13.826;2023-11-21T10:00:45;6.67;;;4.80;;
64619;SDS011;51029;51.058;13.826;2023-11-21T10:03:11;4.67;;;4.27;;
64619;SDS011;51029;51.058;13.826;2023-11-21T10:05:38;4.90;;;4.40;;
64619;SDS011;51029;51.058;13.826;2023-11-21T10:08:04;5.97;;;4.40;;
64619;SDS011;51029;51.058;13.826;2023-11-21T10:10:32;7.80;;;5.47;;
64619;SDS011;51029;51.058;13.826;2023-11-21T10:13:01;8.50;;;5.23;;
64619;SDS011;51029;51.058;13.826;2023-11-21T10:15:31;7.70;;;5.60;;
64619;SDS011;51029;51.058;13.826;2023-11-21T10:17:59;6.47;;;5.50;;
64619;SDS011;51029;51.058;13.826;2023-11-21T10:20:25;7.80;;;6.57;;
64619;SDS011;51029;51.058;13.826;2023-11-21T10:22:51;8.40;;;7.10;;
64619;SDS011;51029;51.058;13.826;2023-11-21T10:25:18;9.10;;;6.97;;
64619;SDS011;51029;51.058;13.826;2023-11-21T10:27:46;10.20;;;7.80;;
64619;SDS011;51029;51.058;13.826;2023-11-21T10:30:13;10.93;;;8.50;;
64619;SDS011;51029;51.058;13.826;2023-11-21T10:32:41;9.70;;;7.80;;
64619;SDS011;51029;51.058;13.826;2023-11-21T10:35:08;10.57;;;8.07;;
64619;SDS011;51029;51.058;13.826;2023-11-21T10:37:38;9.10;;;7.80;;
64619;SDS011;51029;51.058;13.826;2023-11-21T10:40:11;10.53;;;8.17;;
64619;SDS011;51029;51.058;13.826;2023-11-21T10:42:38;9.80;;;8.80;;
64619;SDS011;51029;51.058;13.826;2023-11-21T10:45:04;11.50;;;9.53;;
64619;SDS011;51029;51.058;13.826;2023-11-21T10:47:38;11.13;;;8.77;;
64619;SDS011;51029;51.058;13.826;2023-11-21T10:50:04;11.57;;;9.53;;
64619;SDS011;51029;51.058;13.826;2023-11-21T10:52:30;11.50;;;10.23;;
64619;SDS011;51029;51.058;13.826;2023-11-21T10:54:56;10.73;;;9.30;;
64619;SDS011;51029;51.058;13.826;2023-11-21T10:57:24;10.30;;;9.20;;
64619;SDS011;51029;51.058;13.826;2023-11-21T10:59:50;10.67;;;9.20;;
64619;SDS011;51029;51.058;13.826;2023-11-21T11:02:22;12.33;;;9.50;;
64619;SDS011;51029;51.058;13.826;2023-11-21T11:04:50;11.10;;;9.47;;
64619;SDS011;51029;51.058;13.826;2023-11-21T11:07:18;14.53;;;10.33;;
64619;SDS011;51029;51.058;13.826;2023-11-21T11:09:47;13.00;;;9.87;;
64619;SDS011;51029;51.058;13.826;2023-11-21T11:12:13;13.03;;;9.53;;
64619;SDS011;51029;51.058;13.826;2023-11-21T11:14:40;13.57;;;9.97;;
64619;SDS011;51029;51.058;13.826;2023-11-21T11:17:08;11.23;;;8.93;;
64619;SDS011;51029;51.058;13.826;2023-11-21T11:19:34;15.10;;;10.43;;
64619;SDS011;51029;51.058;13.826;2023-11-21T11:27:19;11.87;;;9.17;;
64619;SDS011;51029;51.058;13.826;2023-11-21T11:30:05;16.90;;;11.20;;
64619;SDS011;51029;51.058;13.826;2023-11-21T11:35:19;9.27;;;7.23;;
64619;SDS011;51029;51.058;13.826;2023-11-21T11:37:49;8.13;;;7.10;;
64619;SDS011;51029;51.058;13.826;2023-11-21T11:40:15;9.40;;;7.27;;
64619;SDS011;51029;51.058;13.826;2023-11-21T11:42:55;7.77;;;6.97;;
64619;SDS011;51029;51.058;13.826;2023-11-21T11:45:22;7.63;;;6.27;;
64619;SDS011;51029;51.058;13.826;2023-11-21T11:47:48;6.87;;;5.80;;
64619;SDS011;51029;51.058;13.826;2023-11-21T11:50:14;6.93;;;5.90;;
64619;SDS011;51029;51.058;13.826;2023-11-21T11:52:46;7.00;;;6.10;;
64619;SDS011;51029;51.058;13.826;2023-11-21T11:55:13;9.03;;;7.27;;
64619;SDS011;51029;51.058;13.826;2023-11-21T11:57:43;8.27;;;7.20;;
64619;SDS011;51029;51.058;13.826;2023-11-21T12:02:35;9.50;;;8.30;;
64619;SDS011;51029;51.058;13.826;2023-11-21T12:05:07;10.17;;;8.40;;
64619;SDS011;51029;51.058;13.826;2023-11-21T12:07:47;11.60;;;8.73;;
64619;SDS011;51029;51.058;13.826;2023-11-21T12:10:14;10.60;;;8.10;;
64619;SDS011;51029;51.058;13.826;2023-11-21T12:12:43;10.53;;;8.33;;
64619;SDS011;51029;51.058;13.826;2023-11-21T12:15:12;8.80;;;7.77;;
64619;SDS011;51029;51.058;13.826;2023-11-21T12:17:38;8.70;;;7.80;;
64619;SDS011;51029;51.058;13.826;2023-11-21T12:20:05;10.40;;;8.03;;
64619;SDS011;51029;51.058;13.826;2023-11-21T12:22:39;8.97;;;7.57;;
64619;SDS011;51029;51.058;13.826;2023-11-21T12:25:06;9.83;;;8.83;;
64619;SDS011;51029;51.058;13.826;2023-11-21T12:27:32;9.80;;;8.37;;
64619;SDS011;51029;51.058;13.826;2023-11-21T12:29:58;12.73;;;9.03;;
64619;SDS011;51029;51.058;13.826;2023-11-21T12:32:24;10.47;;;8.50;;
64619;SDS011;51029;51.058;13.826;2023-11-21T12:34:50;11.23;;;9.43;;
64619;SDS011;51029;51.058;13.826;2023-11-21T12:37:16;11.47;;;9.70;;
64619;SDS011;51029;51.058;13.826;2023-11-21T12:39:43;11.93;;;10.03;;
64619;SDS011;51029;51.058;13.826;2023-11-21T12:42:09;12.97;;;10.67;;
64619;SDS011;51029;51.058;13.826;2023-11-21T12:44:35;13.87;;;11.03;;
64619;SDS011;51029;51.058;13.826;2023-11-21T12:47:05;15.57;;;10.47;;
64619;SDS011;51029;51.058;13.826;2023-11-21T12:49:32;13.30;;;10.47;;
64619;SDS011;51029;51.058;13.826;2023-11-21T12:51:59;14.30;;;10.67;;
64619;SDS011;51029;51.058;13.826;2023-11-21T12:54:25;14.93;;;10.93;;
64619;SDS011;51029;51.058;13.826;2023-11-21T12:56:51;13.57;;;11.73;;
64619;SDS011;51029;51.058;13.826;2023-11-21T12:59:17;13.43;;;11.40;;
64619;SDS011;51029;51.058;13.826;2023-11-21T13:01:43;13.33;;;11.10;;
64619;SDS011;51029;51.058;13.826;2023-11-21T13:04:11;13.27;;;10.13;;
64619;SDS011;51029;51.058;13.826;2023-11-21T13:06:37;11.00;;;9.67;;
64619;SDS011;51029;51.058;13.826;2023-11-21T13:09:06;13.97;;;9.90;;
64619;SDS011;51029;51.058;13.826;2023-11-21T13:11:35;12.03;;;10.27;;
64619;SDS011;51029;51.058;13.826;2023-11-21T13:14:01;13.37;;;9.83;;
64619;SDS011;51029;51.058;13.826;2023-11-21T13:16:28;13.50;;;11.43;;
64619;SDS011;51029;51.058;13.826;2023-11-21T13:18:55;12.33;;;10.80;;
64619;SDS011;51029;51.058;13.826;2023-11-21T13:21:21;16.67;;;12.47;;
64619;SDS011;51029;51.058;13.826;2023-11-21T13:23:47;14.17;;;11.53;;
64619;SDS011;51029;51.058;13.826;2023-11-21T13:26:16;13.63;;;11.60;;
64619;SDS011;51029;51.058;13.826;2023-11-21T13:28:42;13.03;;;9.20;;
64619;SDS011;51029;51.058;13.826;2023-11-21T13:31:12;11.53;;;9.30;;
64619;SDS011;51029;51.058;13.826;2023-11-21T13:33:57;10.47;;;9.07;;
64619;SDS011;51029;51.058;13.826;2023-11-21T13:36:30;11.20;;;9.17;;
64619;SDS011;51029;51.058;13.826;2023-11-21T13:38:58;13.17;;;9.90;;
64619;SDS011;51029;51.058;13.826;2023-11-21T13:41:32;15.07;;;10.77;;
64619;SDS011;51029;51.058;13.826;2023-11-21T13:43:59;14.60;;;10.60;;
64619;SDS011;51029;51.058;13.826;2023-11-21T13:46:40;17.13;;;11.47;;
64619;SDS011;51029;51.058;13.826;2023-11-21T13:49:06;16.17;;;12.17;;
64619;SDS011;51029;51.058;13.826;2023-11-21T13:51:35;16.47;;;13.17;;
64619;SDS011;51029;51.058;13.826;2023-11-21T13:54:09;20.57;;;14.63;;
64619;SDS011;51029;51.058;13.826;2023-11-21T13:56:36;18.33;;;13.43;;
64619;SDS011;51029;51.058;13.826;2023-11-21T13:59:02;22.10;;;12.90;;
64619;SDS011;51029;51.058;13.826;2023-11-21T14:01:39;18.57;;;12.77;;
64619;SDS011;51029;51.058;13.826;2023-11-21T14:04:17;16.43;;;11.97;;
64619;SDS011;51029;51.058;13.826;2023-11-21T14:06:45;17.83;;;12.47;;
64619;SDS011;51029;51.058;13.826;2023-11-21T14:09:16;18.80;;;14.07;;
64619;SDS011;51029;51.058;13.826;2023-11-21T14:11:50;19.37;;;13.33;;
64619;SDS011;51029;51.058;13.826;2023-11-21T14:14:17;27.47;;;13.60;;
64619;SDS011;51029;51.058;13.826;2023-11-21T14:16:43;20.70;;;13.03;;
64619;SDS011;51029;51.058;13.826;2023-11-21T14:19:09;17.13;;;12.03;;
64619;SDS011;51029;51.058;13.826;2023-11-21T14:21:45;17.67;;;12.57;;
64619;SDS011;51029;51.058;13.826;2023-11-21T14:24:14;17.90;;;11.93;;
64619;SDS011;51029;51.058;13.826;2023-11-21T14:26:43;17.47;;;13.33;;
64619;SDS011;51029;51.058;13.826;2023-11-21T14:29:11;20.27;;;13.07;;
64619;SDS011;51029;51.058;13.826;2023-11-21T14:31:39;18.17;;;12.63;;
64619;SDS011;51029;51.058;13.826;2023-11-21T14:34:06;20.63;;;13.60;;
64619;SDS011;51029;51.058;13.826;2023-11-21T14:36:32;22.90;;;13.53;;